Time;durP1;ratioP1;P1;durP2;ratioP2;P2;SDS_P1;SDS_P2;PMS_P1;PMS_P2;Temp;Humidity;BMP_temperature;BMP_pressure;BME280_temperature;BME280_humidity;BME280_pressure;Samples;Min_cycle;Max_cycle;Signal;HPM_P1;HPM_P2
2023/10/30 00:01:45;;;;;;;;;;;13.60;99.90;;;;;;5081322;28;20026;-77
2023/10/30 00:04:10;;;;;;;;;;;13.60;99.90;;;;;;5077562;28;19912;-77
2023/10/30 00:06:36;;;;;;;;;;;13.70;99.90;;;;;;5081830;28;20442;-78
2023/10/30 00:09:02;;;;;;;;;;;13.70;99.90;;;;;;5079407;28;19916;-78
2023/10/30 00:11:27;;;;;;;;;;;13.70;99.90;;;;;;5089184;28;20431;-76
2023/10/30 00:13:53;;;;;;;;;;;13.70;99.90;;;;;;5092840;28;19987;-76
2023/10/30 00:16:18;;;;;;;;;;;13.70;99.90;;;;;;5089920;28;19919;-77
2023/10/30 00:18:45;;;;;;;;;;;13.70;99.90;;;;;;5089799;28;19918;-77
2023/10/30 00:21:11;;;;;;;;;;;13.70;99.90;;;;;;5093635;28;19923;-78
2023/10/30 00:23:36;;;;;;;;;;;13.70;99.90;;;;;;5095039;28;19912;-77
2023/10/30 00:26:03;;;;;;;;;;;13.70;99.90;;;;;;5094304;28;19908;-78
2023/10/30 00:28:30;;;;;;;;;;;13.70;99.90;;;;;;5091163;28;19988;-78
2023/10/30 00:30:56;;;;;;;;;;;13.70;99.90;;;;;;5091719;28;19908;-77
2023/10/30 00:33:21;;;;;;;;;;;13.70;99.90;;;;;;5086127;28;19912;-77
2023/10/30 00:35:47;;;;;;;;;;;13.70;99.90;;;;;;5090899;28;19912;-77
2023/10/30 00:38:12;;;;;;;;;;;13.60;99.90;;;;;;5087916;28;20462;-77
2023/10/30 00:40:38;;;;;;;;;;;13.50;99.90;;;;;;5095288;28;19931;-77
2023/10/30 00:43:04;;;;;;;;;;;13.50;99.90;;;;;;5090596;28;19913;-77
2023/10/30 00:45:30;;;;;;;;;;;13.40;99.90;;;;;;5086507;28;19916;-78
2023/10/30 00:47:55;;;;;;;;;;;13.40;99.90;;;;;;5081236;28;20353;-77
2023/10/30 00:50:21;;;;;;;;;;;13.40;99.90;;;;;;5082405;28;19913;-76
2023/10/30 00:52:46;;;;;;;;;;;13.30;99.90;;;;;;5081236;28;20427;-77
2023/10/30 00:55:13;;;;;;;;;;;13.30;99.90;;;;;;5081340;28;19912;-76
2023/10/30 00:57:38;;;;;;;;;;;13.30;99.90;;;;;;5080762;28;19915;-77
2023/10/30 01:00:04;;;;;;;;;;;13.30;99.90;;;;;;5081562;28;19916;-78
2023/10/30 01:02:30;;;;;;;;;;;13.40;99.90;;;;;;5080562;28;20360;-77
2023/10/30 01:04:55;;;;;;;;;;;13.40;99.90;;;;;;5080037;28;19916;-77
2023/10/30 01:07:21;;;;;;;;;;;13.50;99.90;;;;;;5079232;28;19916;-77
2023/10/30 01:09:47;;;;;;;;;;;13.50;99.90;;;;;;5081340;28;20528;-77
2023/10/30 01:12:13;;;;;;;;;;;13.50;99.90;;;;;;5080516;28;19909;-79
2023/10/30 01:14:38;;;;;;;;;;;13.40;99.90;;;;;;5081697;28;20007;-77
2023/10/30 01:17:04;;;;;;;;;;;13.50;99.90;;;;;;5080925;28;19944;-77
2023/10/30 01:19:29;;;;;;;;;;;13.40;99.90;;;;;;5080975;28;19919;-78
2023/10/30 01:21:55;;;;;;;;;;;13.40;99.90;;;;;;5078871;28;19917;-77
2023/10/30 01:24:21;;;;;;;;;;;13.30;99.90;;;;;;5081183;28;19944;-77
2023/10/30 01:26:46;;;;;;;;;;;13.30;99.90;;;;;;5079241;28;19920;-78
2023/10/30 01:29:12;;;;;;;;;;;13.20;99.90;;;;;;5080269;28;19924;-77
2023/10/30 01:31:37;;;;;;;;;;;13.10;99.90;;;;;;5080281;28;19912;-76
2023/10/30 01:34:03;;;;;;;;;;;13.00;99.90;;;;;;5079001;28;20291;-78
2023/10/30 01:36:29;;;;;;;;;;;13.00;99.90;;;;;;5079326;28;20337;-77
2023/10/30 01:38:54;;;;;;;;;;;12.90;99.90;;;;;;5079801;28;19915;-78
2023/10/30 01:41:20;;;;;;;;;;;12.90;99.90;;;;;;5081290;28;19916;-77
2023/10/30 01:43:45;;;;;;;;;;;12.80;99.90;;;;;;5080446;28;19912;-77
2023/10/30 01:46:11;;;;;;;;;;;12.80;99.90;;;;;;5080566;28;19982;-76
2023/10/30 01:48:37;;;;;;;;;;;12.70;99.90;;;;;;5079188;28;20282;-78
2023/10/30 01:51:04;;;;;;;;;;;12.80;99.90;;;;;;5079349;28;19939;-77
2023/10/30 01:53:31;;;;;;;;;;;12.80;99.90;;;;;;5079188;28;19909;-78
2023/10/30 01:55:57;;;;;;;;;;;12.80;99.90;;;;;;5080409;28;19934;-78
2023/10/30 01:58:23;;;;;;;;;;;12.80;99.90;;;;;;5081134;28;19916;-78
2023/10/30 02:00:50;;;;;;;;;;;12.80;99.90;;;;;;5081699;28;19971;-77
2023/10/30 02:03:15;;;;;;;;;;;12.80;99.90;;;;;;5081029;28;19908;-76
2023/10/30 02:05:41;;;;;;;;;;;12.90;99.90;;;;;;5082742;28;19919;-78
2023/10/30 02:08:07;;;;;;;;;;;12.80;99.90;;;;;;5086648;28;19912;-76
2023/10/30 02:10:33;;;;;;;;;;;12.80;99.90;;;;;;5086442;28;19951;-77
2023/10/30 02:12:59;;;;;;;;;;;12.70;99.90;;;;;;5079811;28;19908;-77
2023/10/30 02:15:25;;;;;;;;;;;12.70;99.90;;;;;;5086794;28;19909;-78
2023/10/30 02:17:51;;;;;;;;;;;12.80;99.90;;;;;;5091144;28;19912;-79
2023/10/30 02:20:17;;;;;;;;;;;12.80;99.90;;;;;;5086375;28;19947;-77
2023/10/30 02:22:42;;;;;;;;;;;12.80;99.90;;;;;;5091238;28;19908;-79
2023/10/30 02:25:08;;;;;;;;;;;12.70;99.90;;;;;;5082088;28;19916;-78
2023/10/30 02:27:33;;;;;;;;;;;12.70;99.90;;;;;;5081377;28;19921;-78
2023/10/30 02:29:59;;;;;;;;;;;12.70;99.90;;;;;;5081463;28;19908;-77
2023/10/30 02:32:24;;;;;;;;;;;12.70;99.90;;;;;;5080660;28;19908;-78
2023/10/30 02:34:50;;;;;;;;;;;12.60;99.90;;;;;;5081671;28;20474;-78
2023/10/30 02:37:15;;;;;;;;;;;12.60;99.90;;;;;;5082031;28;19935;-78
2023/10/30 02:39:41;;;;;;;;;;;12.60;99.90;;;;;;5081713;28;20257;-78
2023/10/30 02:42:08;;;;;;;;;;;12.60;99.90;;;;;;5092569;28;19917;-78
2023/10/30 02:44:33;;;;;;;;;;;12.60;99.90;;;;;;5088911;28;19909;-78
2023/10/30 02:46:59;;;;;;;;;;;12.60;99.90;;;;;;5092357;28;19908;-79
2023/10/30 02:49:25;;;;;;;;;;;12.60;99.90;;;;;;5088924;28;19915;-78
2023/10/30 02:51:50;;;;;;;;;;;12.50;99.90;;;;;;5094047;28;19908;-77
2023/10/30 02:54:16;;;;;;;;;;;12.50;99.90;;;;;;5090618;28;20458;-77
2023/10/30 02:56:41;;;;;;;;;;;12.50;99.90;;;;;;5094249;28;19973;-78
2023/10/30 02:59:07;;;;;;;;;;;12.50;99.90;;;;;;5089301;28;19920;-77
2023/10/30 03:01:33;;;;;;;;;;;12.50;99.90;;;;;;5093345;28;20279;-77
2023/10/30 03:04:00;;;;;;;;;;;12.40;99.90;;;;;;5091537;28;19909;-78
2023/10/30 03:06:26;;;;;;;;;;;12.40;99.90;;;;;;5093985;28;20363;-78
2023/10/30 03:08:52;;;;;;;;;;;12.40;99.90;;;;;;5091800;28;19912;-77
2023/10/30 03:11:17;;;;;;;;;;;12.40;99.90;;;;;;5095042;28;20032;-78
2023/10/30 03:13:43;;;;;;;;;;;12.40;99.90;;;;;;5078651;28;19996;-78
2023/10/30 03:16:08;;;;;;;;;;;12.40;99.90;;;;;;5093010;28;19912;-77
2023/10/30 03:18:34;;;;;;;;;;;12.40;99.90;;;;;;5088427;28;19915;-77
2023/10/30 03:21:00;;;;;;;;;;;12.40;99.90;;;;;;5091770;28;19912;-77
2023/10/30 03:23:25;;;;;;;;;;;12.40;99.90;;;;;;5089818;28;20021;-77
2023/10/30 03:25:51;;;;;;;;;;;12.40;99.90;;;;;;5093018;28;19915;-77
2023/10/30 03:28:16;;;;;;;;;;;12.40;99.90;;;;;;5090238;28;19924;-78
2023/10/30 03:30:42;;;;;;;;;;;12.40;99.90;;;;;;5093496;28;19948;-77
2023/10/30 03:33:08;;;;;;;;;;;12.40;99.90;;;;;;5088752;28;20404;-77
2023/10/30 03:35:37;;;;;;;;;;;12.40;99.90;;;;;;5091158;28;20419;-77
2023/10/30 03:38:03;;;;;;;;;;;12.30;99.90;;;;;;5089002;28;19916;-77
2023/10/30 03:40:28;;;;;;;;;;;12.30;99.90;;;;;;5092341;28;19916;-78
2023/10/30 03:42:54;;;;;;;;;;;12.30;99.90;;;;;;5087539;28;19912;-77
2023/10/30 03:45:19;;;;;;;;;;;12.30;99.90;;;;;;5090597;28;19953;-78
2023/10/30 03:47:45;;;;;;;;;;;12.30;99.90;;;;;;5088782;28;19909;-77
2023/10/30 03:50:12;;;;;;;;;;;12.20;99.90;;;;;;5092667;28;20291;-76
2023/10/30 03:52:39;;;;;;;;;;;12.20;99.90;;;;;;5088918;28;20125;-78
2023/10/30 03:55:04;;;;;;;;;;;12.20;99.90;;;;;;5091283;28;20459;-77
2023/10/30 03:57:30;;;;;;;;;;;12.20;99.90;;;;;;5090046;28;20019;-78
2023/10/30 03:59:56;;;;;;;;;;;12.20;99.90;;;;;;5091760;28;19915;-78
2023/10/30 04:02:21;;;;;;;;;;;12.20;99.90;;;;;;5077596;28;19908;-77
2023/10/30 04:04:47;;;;;;;;;;;12.20;99.90;;;;;;5075513;28;19916;-77
2023/10/30 04:07:13;;;;;;;;;;;12.10;99.90;;;;;;5076942;28;20738;-78
2023/10/30 04:09:38;;;;;;;;;;;12.20;99.90;;;;;;5089647;28;20287;-77
2023/10/30 04:12:04;;;;;;;;;;;12.20;99.90;;;;;;5086197;28;19908;-77
2023/10/30 04:14:32;;;;;;;;;;;12.10;99.90;;;;;;5094693;28;19920;-76
2023/10/30 04:16:59;;;;;;;;;;;12.20;99.90;;;;;;5088816;28;19908;-78
2023/10/30 04:19:24;;;;;;;;;;;12.20;99.90;;;;;;5088090;28;19909;-77
2023/10/30 04:21:50;;;;;;;;;;;12.20;99.90;;;;;;5084889;28;20004;-78
2023/10/30 04:24:16;;;;;;;;;;;12.20;99.90;;;;;;5093770;28;20022;-78
2023/10/30 04:26:41;;;;;;;;;;;12.20;99.90;;;;;;5090853;28;19938;-77
2023/10/30 04:29:07;;;;;;;;;;;12.30;99.90;;;;;;5094318;28;19924;-77
2023/10/30 04:31:32;;;;;;;;;;;12.30;99.90;;;;;;5090099;28;19947;-77
2023/10/30 04:33:58;;;;;;;;;;;12.30;99.90;;;;;;5086524;28;20004;-77
2023/10/30 04:36:23;;;;;;;;;;;12.30;99.90;;;;;;5087051;28;20466;-78
2023/10/30 04:38:50;;;;;;;;;;;12.30;99.90;;;;;;5086600;28;20317;-77
2023/10/30 04:41:15;;;;;;;;;;;12.20;99.90;;;;;;5084828;28;20011;-77
2023/10/30 04:43:41;;;;;;;;;;;12.20;99.90;;;;;;5083865;28;19959;-77
2023/10/30 04:46:07;;;;;;;;;;;12.20;99.90;;;;;;5085036;28;19919;-76
2023/10/30 04:48:32;;;;;;;;;;;12.20;99.90;;;;;;5090068;28;19908;-76
2023/10/30 04:50:58;;;;;;;;;;;12.20;99.90;;;;;;5092558;28;19909;-77
2023/10/30 04:53:24;;;;;;;;;;;12.20;99.90;;;;;;5094902;28;19915;-76
2023/10/30 04:55:50;;;;;;;;;;;12.20;99.90;;;;;;5091639;28;20003;-76
2023/10/30 04:58:15;;;;;;;;;;;12.20;99.90;;;;;;5085165;28;19915;-76
2023/10/30 05:00:42;;;;;;;;;;;12.30;99.90;;;;;;5093526;28;19960;-76
2023/10/30 05:03:09;;;;;;;;;;;12.30;99.90;;;;;;5096493;28;19915;-76
2023/10/30 05:05:35;;;;;;;;;;;12.30;99.90;;;;;;5092686;28;19909;-76
2023/10/30 05:08:00;;;;;;;;;;;12.40;99.90;;;;;;5094959;28;19912;-76
2023/10/30 05:10:26;;;;;;;;;;;12.40;99.90;;;;;;5092250;28;19932;-78
2023/10/30 05:12:52;;;;;;;;;;;12.50;99.90;;;;;;5096462;28;20015;-79
2023/10/30 05:15:18;;;;;;;;;;;12.50;99.90;;;;;;5093112;28;19987;-78
2023/10/30 05:17:44;;;;;;;;;;;12.60;99.90;;;;;;5096155;28;19912;-77
2023/10/30 05:20:09;;;;;;;;;;;12.60;99.90;;;;;;5093443;28;19966;-78
2023/10/30 05:22:35;;;;;;;;;;;12.70;99.90;;;;;;5096193;28;19961;-77
2023/10/30 05:25:05;;;;;;;;;;;12.70;99.90;;;;;;5091348;28;19913;-76
2023/10/30 05:27:31;;;;;;;;;;;12.70;99.90;;;;;;5095241;28;20435;-77
2023/10/30 05:29:57;;;;;;;;;;;12.70;99.90;;;;;;5090984;28;19987;-80
2023/10/30 05:32:24;;;;;;;;;;;12.70;99.90;;;;;;5094209;28;20301;-77
2023/10/30 05:34:50;;;;;;;;;;;12.80;99.90;;;;;;5090363;28;19916;-78
2023/10/30 05:37:16;;;;;;;;;;;12.80;99.90;;;;;;5093458;28;19912;-77
2023/10/30 05:39:42;;;;;;;;;;;12.80;99.90;;;;;;5093202;28;19995;-76
2023/10/30 05:42:07;;;;;;;;;;;12.80;99.90;;;;;;5097200;28;20287;-77
2023/10/30 05:44:33;;;;;;;;;;;12.80;99.90;;;;;;5086119;28;19912;-79
2023/10/30 05:46:59;;;;;;;;;;;12.80;99.90;;;;;;5094260;28;19908;-78
2023/10/30 05:49:25;;;;;;;;;;;12.80;99.90;;;;;;5096468;28;19908;-78
2023/10/30 05:51:51;;;;;;;;;;;12.80;99.90;;;;;;5097279;28;19912;-78
2023/10/30 05:54:17;;;;;;;;;;;12.80;99.90;;;;;;5095818;28;20391;-78
2023/10/30 05:56:42;;;;;;;;;;;12.90;99.90;;;;;;5092852;28;20459;-77
2023/10/30 05:59:08;;;;;;;;;;;12.90;99.90;;;;;;5090163;28;20304;-77
2023/10/30 06:01:33;;;;;;;;;;;12.90;99.90;;;;;;5086430;28;20399;-77
2023/10/30 06:03:59;;;;;;;;;;;12.90;99.90;;;;;;5080380;28;19909;-77
2023/10/30 06:06:24;;;;;;;;;;;12.80;99.90;;;;;;5078131;28;19916;-77
2023/10/30 06:08:50;;;;;;;;;;;12.80;99.90;;;;;;5079559;28;19909;-80
2023/10/30 06:11:15;;;;;;;;;;;12.80;99.90;;;;;;5066768;28;19955;-79
2023/10/30 06:13:41;;;;;;;;;;;12.80;99.90;;;;;;5081624;28;19915;-79
2023/10/30 06:16:07;;;;;;;;;;;12.80;99.90;;;;;;5089107;28;19920;-79
2023/10/30 06:18:32;;;;;;;;;;;12.70;99.90;;;;;;5088375;28;20376;-78
2023/10/30 06:21:01;;;;;;;;;;;12.70;99.90;;;;;;5095504;28;19912;-78
2023/10/30 06:23:26;;;;;;;;;;;12.60;99.90;;;;;;5082833;28;19951;-78
2023/10/30 06:25:54;;;;;;;;;;;12.60;99.90;;;;;;5095653;28;19912;-78
2023/10/30 06:28:19;;;;;;;;;;;12.60;99.90;;;;;;5092465;28;20388;-77
2023/10/30 06:30:45;;;;;;;;;;;12.60;99.90;;;;;;5089000;28;19935;-77
2023/10/30 06:33:10;;;;;;;;;;;12.60;99.90;;;;;;5085105;28;19908;-77
2023/10/30 06:35:36;;;;;;;;;;;12.60;99.90;;;;;;5087250;28;19961;-77
2023/10/30 06:38:01;;;;;;;;;;;12.60;99.90;;;;;;5085149;28;19909;-76
2023/10/30 06:40:27;;;;;;;;;;;12.60;99.90;;;;;;5085895;28;20002;-76
2023/10/30 06:42:52;;;;;;;;;;;12.70;99.90;;;;;;5083815;28;19913;-78
2023/10/30 06:45:18;;;;;;;;;;;12.70;99.90;;;;;;5087299;28;19957;-78
2023/10/30 06:47:44;;;;;;;;;;;12.80;99.90;;;;;;5079892;28;19912;-77
2023/10/30 06:50:10;;;;;;;;;;;12.80;99.90;;;;;;5078456;28;19913;-77
2023/10/30 06:52:35;;;;;;;;;;;12.80;99.90;;;;;;5079462;28;20392;-76
2023/10/30 06:55:01;;;;;;;;;;;12.80;99.90;;;;;;5066221;28;20226;-77
2023/10/30 06:57:27;;;;;;;;;;;12.80;99.90;;;;;;5078446;28;20423;-77
2023/10/30 06:59:55;;;;;;;;;;;12.90;99.90;;;;;;5077118;28;19908;-77
2023/10/30 07:02:21;;;;;;;;;;;12.90;99.90;;;;;;5080541;28;19913;-76
2023/10/30 07:04:46;;;;;;;;;;;12.90;99.90;;;;;;5078935;28;20007;-77
2023/10/30 07:07:12;;;;;;;;;;;13.00;99.90;;;;;;5089411;28;19991;-78
2023/10/30 07:09:37;;;;;;;;;;;13.00;99.90;;;;;;5087289;28;20010;-78
2023/10/30 07:12:03;;;;;;;;;;;13.00;99.90;;;;;;5079478;28;20001;-80
2023/10/30 07:14:28;;;;;;;;;;;13.00;99.90;;;;;;5076257;28;19920;-78
2023/10/30 07:16:54;;;;;;;;;;;13.10;99.90;;;;;;5081083;28;19909;-78
2023/10/30 07:19:22;;;;;;;;;;;13.10;99.90;;;;;;5082935;28;19912;-78
2023/10/30 07:21:47;;;;;;;;;;;13.10;99.90;;;;;;5083220;28;19923;-78
2023/10/30 07:24:13;;;;;;;;;;;13.10;99.90;;;;;;5082283;28;20454;-79
2023/10/30 07:26:38;;;;;;;;;;;13.20;99.90;;;;;;5076919;28;19912;-77
2023/10/30 07:29:04;;;;;;;;;;;13.20;99.90;;;;;;5076844;28;20464;-78
2023/10/30 07:31:29;;;;;;;;;;;13.20;99.90;;;;;;5078798;28;19909;-78
2023/10/30 07:33:55;;;;;;;;;;;13.20;99.90;;;;;;5077329;28;19915;-78
2023/10/30 07:36:21;;;;;;;;;;;13.30;99.90;;;;;;5078599;28;19967;-78
2023/10/30 07:38:47;;;;;;;;;;;13.30;99.90;;;;;;5076570;28;19913;-78
2023/10/30 07:41:12;;;;;;;;;;;13.30;99.90;;;;;;5085363;28;19912;-78
2023/10/30 07:43:38;;;;;;;;;;;13.30;99.90;;;;;;5087730;28;19908;-78
2023/10/30 07:46:03;;;;;;;;;;;13.40;99.90;;;;;;5086505;28;19908;-78
2023/10/30 07:48:29;;;;;;;;;;;13.40;99.90;;;;;;5087646;28;20008;-77
2023/10/30 07:50:54;;;;;;;;;;;13.50;99.90;;;;;;5086261;28;20007;-78
2023/10/30 07:53:20;;;;;;;;;;;13.50;99.90;;;;;;5088424;28;20335;-78
2023/10/30 07:55:46;;;;;;;;;;;13.50;99.90;;;;;;5086079;28;20390;-78
2023/10/30 07:58:12;;;;;;;;;;;13.60;99.90;;;;;;5085282;28;19908;-77
2023/10/30 08:00:38;;;;;;;;;;;13.60;99.90;;;;;;5083846;28;19912;-77
2023/10/30 08:03:05;;;;;;;;;;;13.60;99.90;;;;;;5082751;28;20547;-77
2023/10/30 08:05:32;;;;;;;;;;;13.70;99.90;;;;;;5075505;28;19962;-77
2023/10/30 08:07:57;;;;;;;;;;;13.70;99.90;;;;;;5086905;28;19912;-78
2023/10/30 08:10:23;;;;;;;;;;;13.70;99.90;;;;;;5083323;28;19909;-77
2023/10/30 08:12:48;;;;;;;;;;;13.70;99.90;;;;;;5085320;28;19947;-77
2023/10/30 08:15:14;;;;;;;;;;;13.80;99.90;;;;;;5083906;28;19920;-78
2023/10/30 08:17:40;;;;;;;;;;;13.80;99.90;;;;;;5087440;28;19930;-77
2023/10/30 08:20:05;;;;;;;;;;;13.80;99.90;;;;;;5085191;28;19920;-77
2023/10/30 08:22:34;;;;;;;;;;;13.80;99.90;;;;;;5079021;28;19908;-77
2023/10/30 08:24:59;;;;;;;;;;;13.80;99.90;;;;;;5084809;28;19952;-77
2023/10/30 08:27:25;;;;;;;;;;;13.90;99.90;;;;;;5085507;28;19931;-77
2023/10/30 08:29:51;;;;;;;;;;;13.90;99.90;;;;;;5083485;28;19962;-78
2023/10/30 08:32:16;;;;;;;;;;;13.90;99.90;;;;;;5086600;28;19912;-78
2023/10/30 08:34:42;;;;;;;;;;;13.90;99.90;;;;;;5083669;28;19938;-78
2023/10/30 08:37:07;;;;;;;;;;;13.90;99.90;;;;;;5086247;28;19915;-78
2023/10/30 08:39:33;;;;;;;;;;;13.90;99.90;;;;;;5083461;28;20355;-77
2023/10/30 08:41:58;;;;;;;;;;;14.00;99.90;;;;;;5084334;28;20376;-78
2023/10/30 08:44:24;;;;;;;;;;;14.00;99.90;;;;;;5089240;28;20371;-78
2023/10/30 08:46:50;;;;;;;;;;;14.00;99.90;;;;;;5087083;28;19912;-75
2023/10/30 08:49:16;;;;;;;;;;;14.10;99.90;;;;;;5092287;28;19919;-77
2023/10/30 08:51:42;;;;;;;;;;;14.10;99.90;;;;;;5085901;28;19909;-78
2023/10/30 08:54:07;;;;;;;;;;;14.10;99.90;;;;;;5079503;28;19969;-78
2023/10/30 08:56:33;;;;;;;;;;;14.10;99.90;;;;;;5067835;28;19921;-77
2023/10/30 08:58:58;;;;;;;;;;;14.10;99.90;;;;;;5085638;28;19912;-78
2023/10/30 09:01:24;;;;;;;;;;;14.20;99.90;;;;;;5097108;28;19912;-78
2023/10/30 09:03:50;;;;;;;;;;;14.20;99.90;;;;;;5098519;28;20015;-78
2023/10/30 09:06:15;;;;;;;;;;;14.30;99.90;;;;;;5098730;28;19908;-79
2023/10/30 09:08:41;;;;;;;;;;;14.30;99.90;;;;;;5095165;28;20384;-80
2023/10/30 09:11:06;;;;;;;;;;;14.30;99.90;;;;;;5077744;28;19957;-79
2023/10/30 09:13:32;;;;;;;;;;;14.30;99.90;;;;;;5092413;28;19908;-80
2023/10/30 09:15:58;;;;;;;;;;;14.30;99.90;;;;;;5080553;28;19975;-79
2023/10/30 09:18:23;;;;;;;;;;;14.30;99.90;;;;;;5086831;28;20399;-79
2023/10/30 09:20:49;;;;;;;;;;;14.30;99.90;;;;;;5087657;28;19923;-79
2023/10/30 09:23:14;;;;;;;;;;;14.30;99.90;;;;;;5089201;28;19912;-78
2023/10/30 09:25:40;;;;;;;;;;;14.40;99.90;;;;;;5088722;28;19916;-78
2023/10/30 09:28:05;;;;;;;;;;;14.30;99.90;;;;;;5088312;28;19924;-78
2023/10/30 09:30:31;;;;;;;;;;;14.30;99.90;;;;;;5090455;28;19952;-77
2023/10/30 09:32:58;;;;;;;;;;;14.40;99.90;;;;;;5088796;28;19941;-77
2023/10/30 09:35:24;;;;;;;;;;;14.40;99.90;;;;;;5085411;28;19958;-77
2023/10/30 09:37:49;;;;;;;;;;;14.40;99.90;;;;;;5082236;28;19924;-77
2023/10/30 09:40:15;;;;;;;;;;;14.50;99.90;;;;;;5090622;28;19912;-77
2023/10/30 09:42:52;;;;;;;;;;;14.40;99.90;;;;;;5088315;28;19935;-77
2023/10/30 09:45:19;;;;;;;;;;;14.40;99.90;;;;;;5092526;28;20273;-77
2023/10/30 09:47:45;;;;;;;;;;;14.40;99.90;;;;;;5088337;28;19912;-76
2023/10/30 09:50:11;;;;;;;;;;;14.40;99.90;;;;;;5084261;28;19960;-76
2023/10/30 09:52:37;;;;;;;;;;;14.40;99.90;;;;;;5084665;28;19915;-76
2023/10/30 09:55:06;;;;;;;;;;;14.40;99.90;;;;;;5084349;28;19912;-76
2023/10/30 09:57:32;;;;;;;;;;;14.40;99.90;;;;;;5082536;28;19913;-77
2023/10/30 09:59:57;;;;;;;;;;;14.50;99.90;;;;;;5083458;28;19988;-77
2023/10/30 10:02:23;;;;;;;;;;;14.70;99.90;;;;;;5084448;28;20367;-77
2023/10/30 10:04:49;;;;;;;;;;;14.80;99.90;;;;;;5089992;28;20049;-76
2023/10/30 10:07:15;;;;;;;;;;;15.00;99.90;;;;;;5093278;28;20953;-76
2023/10/30 10:10:02;;;;;;;;;;;15.10;99.90;;;;;;5095509;28;19916;-76
2023/10/30 10:12:29;;;;;;;;;;;15.10;99.90;;;;;;5094797;28;20391;-75
2023/10/30 10:14:54;;;;;;;;;;;15.30;99.90;;;;;;5092180;28;19908;-76
2023/10/30 10:17:20;;;;;;;;;;;15.40;99.90;;;;;;5087201;28;19977;-75
2023/10/30 10:19:46;;;;;;;;;;;15.60;99.90;;;;;;5088527;28;19938;-76
2023/10/30 10:22:25;;;;;;;;;;;15.80;99.90;;;;;;5091017;28;20281;-76
2023/10/30 10:24:52;;;;;;;;;;;16.00;99.90;;;;;;5092812;28;19955;-77
2023/10/30 10:27:19;;;;;;;;;;;16.20;99.90;;;;;;5093226;28;19992;-76
2023/10/30 10:29:51;;;;;;;;;;;16.40;99.90;;;;;;5090427;28;19916;-76
2023/10/30 10:32:16;;;;;;;;;;;16.50;99.90;;;;;;5087266;28;19912;-77
2023/10/30 10:34:42;;;;;;;;;;;16.60;99.90;;;;;;5085903;28;19908;-76
2023/10/30 10:37:16;;;;;;;;;;;16.70;99.90;;;;;;5086856;28;19938;-75
2023/10/30 10:39:46;;;;;;;;;;;16.80;99.90;;;;;;5082728;28;19912;-77
2023/10/30 10:42:12;;;;;;;;;;;16.70;99.90;;;;;;5088303;28;19923;-77
2023/10/30 10:44:38;;;;;;;;;;;16.80;99.90;;;;;;5071136;28;19909;-76
2023/10/30 10:47:04;;;;;;;;;;;16.90;99.90;;;;;;5092020;28;19912;-77
2023/10/30 10:49:29;;;;;;;;;;;16.90;99.90;;;;;;5094434;28;19948;-77
2023/10/30 10:51:55;;;;;;;;;;;16.90;99.90;;;;;;5094112;28;19931;-76
2023/10/30 10:54:27;;;;;;;;;;;16.90;99.90;;;;;;5092529;28;20006;-76
2023/10/30 10:56:53;;;;;;;;;;;16.90;99.90;;;;;;5083843;28;19912;-77
2023/10/30 10:59:21;;;;;;;;;;;16.80;99.90;;;;;;5092816;28;19947;-77
2023/10/30 11:01:49;;;;;;;;;;;16.90;99.90;;;;;;5095124;28;20003;-74
2023/10/30 11:04:16;;;;;;;;;;;16.70;99.90;;;;;;5095386;28;19912;-76
2023/10/30 11:06:45;;;;;;;;;;;16.70;99.90;;;;;;5094419;28;20428;-76
2023/10/30 11:09:19;;;;;;;;;;;16.60;99.90;;;;;;5073809;28;19916;-76
2023/10/30 11:11:59;;;;;;;;;;;16.70;99.90;;;;;;5087337;28;19916;-75
2023/10/30 11:14:28;;;;;;;;;;;16.70;99.90;;;;;;5093550;28;19920;-75
2023/10/30 11:16:58;;;;;;;;;;;16.80;99.90;;;;;;5092625;28;19947;-74
2023/10/30 11:19:25;;;;;;;;;;;16.80;99.90;;;;;;5094382;28;19908;-75
2023/10/30 11:21:51;;;;;;;;;;;16.80;99.90;;;;;;5090991;28;20288;-75
2023/10/30 11:24:38;;;;;;;;;;;16.60;99.90;;;;;;5084080;28;19917;-77
2023/10/30 11:27:27;;;;;;;;;;;16.40;99.90;;;;;;5072882;28;19908;-76
2023/10/30 11:29:57;;;;;;;;;;;16.20;99.90;;;;;;5080652;28;19923;-77
2023/10/30 11:32:26;;;;;;;;;;;16.10;99.90;;;;;;5092555;28;19908;-78
2023/10/30 11:34:52;;;;;;;;;;;15.90;99.90;;;;;;5079676;28;19999;-76
2023/10/30 11:37:18;;;;;;;;;;;15.80;99.90;;;;;;5078473;28;19963;-74
2023/10/30 11:39:45;;;;;;;;;;;15.60;99.90;;;;;;5079498;28;19913;-75
2023/10/30 11:42:28;;;;;;;;;;;15.50;99.90;;;;;;5089211;28;19941;-76
2023/10/30 11:45:14;;;;;;;;;;;15.20;99.90;;;;;;5094487;28;19912;-75
2023/10/30 11:47:41;;;;;;;;;;;14.80;99.90;;;;;;5092046;28;20291;-74
2023/10/30 11:50:08;;;;;;;;;;;14.40;99.90;;;;;;5094515;28;19915;-74
2023/10/30 11:52:34;;;;;;;;;;;14.00;99.90;;;;;;5092086;28;19999;-75
2023/10/30 11:55:04;;;;;;;;;;;13.80;99.90;;;;;;5093410;28;19951;-75
2023/10/30 11:57:30;;;;;;;;;;;13.50;99.90;;;;;;5091217;28;20020;-74
2023/10/30 11:59:56;;;;;;;;;;;13.40;99.90;;;;;;5094468;28;20046;-73
2023/10/30 12:02:21;;;;;;;;;;;13.40;99.90;;;;;;5086102;28;19958;-73
2023/10/30 12:04:47;;;;;;;;;;;13.40;99.90;;;;;;5092431;28;20003;-74
2023/10/30 12:07:15;;;;;;;;;;;13.50;99.90;;;;;;5093793;28;19947;-74
2023/10/30 12:09:41;;;;;;;;;;;13.50;99.90;;;;;;5095076;28;19912;-75
2023/10/30 12:12:06;;;;;;;;;;;13.50;99.90;;;;;;5093857;28;19912;-74
2023/10/30 12:14:32;;;;;;;;;;;13.60;99.90;;;;;;5089904;28;19912;-73
2023/10/30 12:16:58;;;;;;;;;;;13.70;99.90;;;;;;5087265;28;19916;-75
2023/10/30 12:19:24;;;;;;;;;;;13.70;99.90;;;;;;5091300;28;20802;-73
2023/10/30 12:21:50;;;;;;;;;;;13.70;99.90;;;;;;5085715;28;20364;-74
2023/10/30 12:24:18;;;;;;;;;;;13.70;99.90;;;;;;5091420;28;20443;-75
2023/10/30 12:26:46;;;;;;;;;;;13.70;99.90;;;;;;5085727;28;19916;-74
2023/10/30 12:29:18;;;;;;;;;;;13.70;99.90;;;;;;5091266;28;19924;-73
2023/10/30 12:31:43;;;;;;;;;;;13.70;99.90;;;;;;5076871;28;19958;-73
2023/10/30 12:34:09;;;;;;;;;;;13.80;99.90;;;;;;5080328;28;19912;-73
2023/10/30 12:36:35;;;;;;;;;;;13.80;99.90;;;;;;5090374;28;19916;-74
2023/10/30 12:39:11;;;;;;;;;;;13.80;99.90;;;;;;5091126;28;19951;-73
2023/10/30 12:41:36;;;;;;;;;;;13.80;99.90;;;;;;5095557;28;19954;-73
2023/10/30 12:44:02;;;;;;;;;;;13.80;99.90;;;;;;5087388;28;20296;-74
2023/10/30 12:46:27;;;;;;;;;;;13.80;99.90;;;;;;5080386;28;19912;-74
2023/10/30 12:48:53;;;;;;;;;;;13.80;99.90;;;;;;5082809;28;19908;-73
2023/10/30 12:51:19;;;;;;;;;;;13.80;99.90;;;;;;5087584;28;19908;-73
2023/10/30 12:53:45;;;;;;;;;;;13.70;99.90;;;;;;5097627;28;19950;-73
2023/10/30 12:56:10;;;;;;;;;;;13.70;99.90;;;;;;5097576;28;20384;-73
2023/10/30 12:58:36;;;;;;;;;;;13.70;99.90;;;;;;5098011;28;19942;-73
2023/10/30 13:01:03;;;;;;;;;;;13.70;99.90;;;;;;5097458;28;19912;-74
2023/10/30 13:03:29;;;;;;;;;;;13.60;99.90;;;;;;5096486;28;19915;-73
2023/10/30 13:05:54;;;;;;;;;;;13.70;99.90;;;;;;5083336;28;19913;-74
2023/10/30 13:08:20;;;;;;;;;;;13.60;99.90;;;;;;5096118;28;20391;-74
2023/10/30 13:10:46;;;;;;;;;;;13.60;99.90;;;;;;5089888;28;19962;-74
2023/10/30 13:13:16;;;;;;;;;;;13.60;99.90;;;;;;5091860;28;19908;-74
2023/10/30 13:15:45;;;;;;;;;;;13.60;99.90;;;;;;5095714;28;20302;-74
2023/10/30 13:18:14;;;;;;;;;;;13.60;99.90;;;;;;5095433;28;19912;-73
2023/10/30 13:20:39;;;;;;;;;;;13.60;99.90;;;;;;5096825;28;19947;-73
2023/10/30 13:23:05;;;;;;;;;;;13.60;99.90;;;;;;5094704;28;19915;-74
2023/10/30 13:25:31;;;;;;;;;;;13.60;99.90;;;;;;5088861;28;20019;-73
2023/10/30 13:27:57;;;;;;;;;;;13.60;99.90;;;;;;5091302;28;19935;-74
2023/10/30 13:30:22;;;;;;;;;;;13.50;99.90;;;;;;5088977;28;19920;-73
2023/10/30 13:32:48;;;;;;;;;;;13.50;99.90;;;;;;5091283;28;20393;-73
2023/10/30 13:35:14;;;;;;;;;;;13.40;99.90;;;;;;5088836;28;19913;-73
2023/10/30 13:37:39;;;;;;;;;;;13.40;99.90;;;;;;5090726;28;20007;-73
2023/10/30 13:40:06;;;;;;;;;;;13.40;99.90;;;;;;5085438;28;20367;-74
2023/10/30 13:42:32;;;;;;;;;;;13.40;99.90;;;;;;5078974;28;19913;-74
2023/10/30 13:44:57;;;;;;;;;;;13.20;99.90;;;;;;5077755;28;19912;-73
2023/10/30 13:47:23;;;;;;;;;;;13.10;99.90;;;;;;5078563;28;19915;-75
2023/10/30 13:49:48;;;;;;;;;;;13.00;99.90;;;;;;5078547;28;19954;-74
2023/10/30 13:52:14;;;;;;;;;;;12.80;99.90;;;;;;5078413;28;20388;-73
2023/10/30 13:54:40;;;;;;;;;;;12.60;99.90;;;;;;5076983;28;19909;-74
2023/10/30 13:57:05;;;;;;;;;;;12.40;99.90;;;;;;5077031;28;20952;-74
2023/10/30 13:59:31;;;;;;;;;;;12.30;99.90;;;;;;5078096;28;20035;-74
2023/10/30 14:01:56;;;;;;;;;;;12.10;99.90;;;;;;5064234;28;19921;-72
2023/10/30 14:04:22;;;;;;;;;;;12.00;99.90;;;;;;5078489;28;19913;-72
2023/10/30 14:06:47;;;;;;;;;;;11.90;99.90;;;;;;5076486;28;19916;-72
2023/10/30 14:09:13;;;;;;;;;;;11.80;99.90;;;;;;5076590;28;20338;-73
2023/10/30 14:11:38;;;;;;;;;;;11.70;99.90;;;;;;5077785;28;19979;-72